CheckWX is a tool to help pilots better visualize weather data.  It is not intended as a substitute for an official pre-flight weather briefing.

17:19:53 UTC

SBCF TAF
Tancredo Neves International Airport
Belo Horizonte, Brazil
TAF SBCF 101500Z 1018/1118 22006KT 9999 SCT040 TX27/1018Z TN14/1109Z BECMG 1021/1023 32002KT CAVOK BECMG 1100/1102 14004KT BECMG 1113/1115 05008KT 9999 FEW030 BECMG 1116/1118 24005KT RMK PAY

Jul-10@
18:00 UTC

Jul-10 @ 18:00 UTC

Jul-10@
21:00 UTC

Jul-10 @ 21:00 UTC

TAF SBCF 101500Z 1018/1118 22006KT 9999 SCT040 TX27/1018Z TN14/1109Z

Expired

Wind
  • 220° at 6 KTS
Cloud Levels
  • Scattered at 4,000' AGL

Jul-10@
21:00 UTC

Jul-10 @ 21:00 UTC

Jul-11@
00:00 UTC

Jul-11 @ 00:00 UTC

BECMG 1021/1023 32002KT CAVOK

Expired

Wind
  • 320° at 2 KTS
Conditions
No significant weather
Cloud Levels
  • No significant clouds

Jul-11@
00:00 UTC

Jul-11 @ 00:00 UTC

Jul-11@
13:00 UTC

Jul-11 @ 13:00 UTC

BECMG 1100/1102 14004KT

Expired

Wind
  • 140° at 4 KTS
Conditions
No significant weather
Cloud Levels
  • No significant clouds

Jul-11@
13:00 UTC

Jul-11 @ 13:00 UTC

Jul-11@
16:00 UTC

Jul-11 @ 16:00 UTC

BECMG 1113/1115 05008KT 9999 FEW030

Expired

Wind
  • 050° at 8 KTS
Conditions
No significant weather
Cloud Levels
  • Few at 3,000' AGL

Jul-11@
16:00 UTC

Jul-11 @ 16:00 UTC

Jul-11@
18:00 UTC

Jul-11 @ 18:00 UTC

BECMG 1116/1118 24005KT RMK PAY

Becoming

Becoming Conditions expected by Sat, Jul 11, 2020 @ 18:00 UTC

Wind
  • 240° at 5 KTS
Conditions
No significant weather
Cloud Levels
  • Few at 3,000' AGL